Time;durP1;ratioP1;P1;durP2;ratioP2;P2;SDS_P1;SDS_P2;PMS_P1;PMS_P2;Temp;Humidity;BMP_temperature;BMP_pressure;BME280_temperature;BME280_humidity;BME280_pressure;Samples;Min_cycle;Max_cycle;Signal;HPM_P1;HPM_P2
2022/04/27 00:00:33;;;;;;;2.42;1.98;;;;;;;;;;5009245;28;20235;-17
2022/04/27 00:03:01;;;;;;;3.33;2.30;;;;;;;;;;5006519;28;20242;-17
2022/04/27 00:05:29;;;;;;;4.18;2.22;;;;;;;;;;5007842;28;21444;-17
2022/04/27 00:07:56;;;;;;;2.65;2.20;;;;;;;;;;5009309;28;20355;-17
2022/04/27 00:10:24;;;;;;;2.35;1.92;;;;;;;;;;5009063;28;20227;-17
2022/04/27 00:12:51;;;;;;;2.25;2.05;;;;;;;;;;5007716;28;20237;-17
2022/04/27 00:15:20;;;;;;;2.38;2.08;;;;;;;;;;5008375;28;20242;-17
2022/04/27 00:17:49;;;;;;;2.92;1.95;;;;;;;;;;5007963;28;20242;-17
2022/04/27 00:20:16;;;;;;;2.72;2.25;;;;;;;;;;5005835;28;20236;-17
2022/04/27 00:22:44;;;;;;;2.03;1.77;;;;;;;;;;5004526;28;20730;-17
2022/04/27 00:25:11;;;;;;;3.60;2.30;;;;;;;;;;5005803;28;20695;-17
2022/04/27 00:27:39;;;;;;;2.92;2.15;;;;;;;;;;5005421;28;20242;-17
2022/04/27 00:30:07;;;;;;;4.13;2.30;;;;;;;;;;5004944;28;21027;-17
2022/04/27 00:32:34;;;;;;;2.97;2.25;;;;;;;;;;5009626;28;20235;-17
2022/04/27 00:35:05;;;;;;;2.50;2.13;;;;;;;;;;5002764;28;20239;-17
2022/04/27 00:37:32;;;;;;;2.85;2.40;;;;;;;;;;5006759;28;20723;-17
2022/04/27 00:40:00;;;;;;;2.20;2.00;;;;;;;;;;5004412;28;20615;-17
2022/04/27 00:42:27;;;;;;;2.90;2.10;;;;;;;;;;5005862;28;20707;-17
2022/04/27 00:44:54;;;;;;;2.47;2.28;;;;;;;;;;5003068;28;20714;-17
2022/04/27 00:47:22;;;;;;;2.63;2.33;;;;;;;;;;5006442;28;20239;-17
2022/04/27 00:49:49;;;;;;;4.03;2.22;;;;;;;;;;5002439;28;20238;-17
2022/04/27 00:52:18;;;;;;;3.30;2.58;;;;;;;;;;5006114;28;20227;-17
2022/04/27 00:54:47;;;;;;;4.13;2.38;;;;;;;;;;5002367;28;20224;-17
2022/04/27 00:57:14;;;;;;;2.88;2.20;;;;;;;;;;5005451;28;20710;-17
2022/04/27 00:59:42;;;;;;;3.15;2.47;;;;;;;;;;5007746;28;20239;-17
2022/04/27 01:02:09;;;;;;;3.42;2.63;;;;;;;;;;5002621;28;20240;-17
2022/04/27 01:04:37;;;;;;;2.50;2.30;;;;;;;;;;5005744;28;20231;-17
2022/04/27 01:07:05;;;;;;;3.63;2.40;;;;;;;;;;5002176;28;20236;-17
2022/04/27 01:09:34;;;;;;;3.35;2.35;;;;;;;;;;5005692;28;20228;-17
2022/04/27 01:12:01;;;;;;;2.72;2.40;;;;;;;;;;5006091;28;20995;-17
2022/04/27 01:14:29;;;;;;;2.85;2.33;;;;;;;;;;5004742;28;20238;-17
2022/04/27 01:16:57;;;;;;;2.72;2.30;;;;;;;;;;5003650;28;20235;-17
2022/04/27 01:19:26;;;;;;;2.83;2.30;;;;;;;;;;5006765;28;20235;-17
2022/04/27 01:21:55;;;;;;;3.55;2.25;;;;;;;;;;5004666;28;20240;-17
2022/04/27 01:24:24;;;;;;;2.33;2.00;;;;;;;;;;5003473;28;20235;-17
2022/04/27 01:26:51;;;;;;;2.78;2.50;;;;;;;;;;5002811;28;20224;-17
2022/04/27 01:29:19;;;;;;;3.17;2.42;;;;;;;;;;5004815;28;20228;-17
2022/04/27 01:31:46;;;;;;;3.15;2.40;;;;;;;;;;5005487;28;20234;-17
2022/04/27 01:34:14;;;;;;;5.95;2.20;;;;;;;;;;5001101;28;20228;-17
2022/04/27 01:36:41;;;;;;;3.10;2.35;;;;;;;;;;5004721;28;20235;-17
2022/04/27 01:39:10;;;;;;;3.90;2.35;;;;;;;;;;5001482;28;20966;-17
2022/04/27 01:41:37;;;;;;;3.65;2.20;;;;;;;;;;5004206;28;21120;-17
2022/04/27 01:44:04;;;;;;;2.72;2.28;;;;;;;;;;5000782;28;20235;-17
2022/04/27 01:46:32;;;;;;;3.28;2.38;;;;;;;;;;5004763;28;20734;-17
2022/04/27 01:49:00;;;;;;;4.43;2.58;;;;;;;;;;5002374;28;20730;-17
2022/04/27 01:54:16;;;;;;;3.13;2.38;;;;;;;;;;5004646;28;20235;-17
2022/04/27 01:56:43;;;;;;;2.97;2.35;;;;;;;;;;5001297;28;20354;-17
2022/04/27 01:59:10;;;;;;;3.20;2.45;;;;;;;;;;5003916;28;20222;-17
2022/04/27 02:01:38;;;;;;;3.95;2.50;;;;;;;;;;5008680;28;20243;-17
2022/04/27 02:04:05;;;;;;;2.70;2.33;;;;;;;;;;5001061;28;20236;-17
2022/04/27 02:06:35;;;;;;;4.18;2.38;;;;;;;;;;5004324;28;20238;-17
2022/04/27 02:09:03;;;;;;;3.80;2.90;;;;;;;;;;5001667;28;20236;-17
2022/04/27 02:11:32;;;;;;;3.58;2.50;;;;;;;;;;5003482;28;20224;-17
2022/04/27 02:13:59;;;;;;;3.00;2.40;;;;;;;;;;5001901;28;20319;-17
2022/04/27 02:16:27;;;;;;;3.30;2.28;;;;;;;;;;5003359;28;20704;-17
2022/04/27 02:18:55;;;;;;;2.60;2.28;;;;;;;;;;5002376;28;20274;-17
2022/04/27 02:21:23;;;;;;;3.63;2.38;;;;;;;;;;5001813;28;20244;-17
2022/04/27 02:23:50;;;;;;;3.28;2.20;;;;;;;;;;5002054;28;20331;-17
2022/04/27 02:26:18;;;;;;;3.80;2.65;;;;;;;;;;5000211;28;20231;-17
2022/04/27 02:28:47;;;;;;;4.10;2.65;;;;;;;;;;5003635;28;20223;-17
2022/04/27 02:31:14;;;;;;;2.97;2.53;;;;;;;;;;5002002;28;20626;-17
2022/04/27 02:33:41;;;;;;;4.88;2.63;;;;;;;;;;5003848;28;20326;-17
2022/04/27 02:36:09;;;;;;;3.38;2.50;;;;;;;;;;5003985;28;20242;-17
2022/04/27 02:38:36;;;;;;;3.63;2.58;;;;;;;;;;5003866;28;21121;-17
2022/04/27 02:41:04;;;;;;;4.72;2.90;;;;;;;;;;5004279;28;20646;-17
2022/04/27 02:43:32;;;;;;;4.18;2.65;;;;;;;;;;5004282;28;20590;-17
2022/04/27 02:46:00;;;;;;;3.15;2.22;;;;;;;;;;5002622;28;20238;-17
2022/04/27 02:48:28;;;;;;;3.75;2.40;;;;;;;;;;5003071;28;21084;-17
2022/04/27 02:53:39;;;;;;;2.90;2.33;;;;;;;;;;4993841;28;20696;-17
2022/04/27 02:56:07;;;;;;;4.18;2.88;;;;;;;;;;5000350;28;20226;-17
2022/04/27 02:58:34;;;;;;;3.30;2.30;;;;;;;;;;5003067;28;20227;-17
2022/04/27 03:01:03;;;;;;;2.72;2.53;;;;;;;;;;5001009;28;20244;-17
2022/04/27 03:03:30;;;;;;;2.53;2.28;;;;;;;;;;5003426;28;20632;-17
2022/04/27 03:05:57;;;;;;;3.45;2.60;;;;;;;;;;4999367;28;20229;-17
2022/04/27 03:08:25;;;;;;;4.65;2.67;;;;;;;;;;5003214;28;20238;-17
2022/04/27 03:10:52;;;;;;;3.85;2.45;;;;;;;;;;4999633;28;20235;-17
2022/04/27 03:13:19;;;;;;;3.05;2.40;;;;;;;;;;5001704;28;20992;-17
2022/04/27 03:15:47;;;;;;;3.70;2.42;;;;;;;;;;5004283;28;20223;-17
2022/04/27 03:18:19;;;;;;;2.70;2.33;;;;;;;;;;5000294;28;20227;-17
2022/04/27 03:20:48;;;;;;;3.58;2.40;;;;;;;;;;5002408;28;20250;-17
2022/04/27 03:23:16;;;;;;;2.95;2.35;;;;;;;;;;5003648;28;20250;-17
2022/04/27 03:25:43;;;;;;;4.13;2.30;;;;;;;;;;5003964;28;20236;-17
2022/04/27 03:28:12;;;;;;;3.38;2.88;;;;;;;;;;5000084;28;20228;-17
2022/04/27 03:30:39;;;;;;;4.38;2.60;;;;;;;;;;5003530;28;20235;-17
2022/04/27 03:33:06;;;;;;;2.50;2.30;;;;;;;;;;5003289;28;20223;-17
2022/04/27 03:35:36;;;;;;;3.65;2.45;;;;;;;;;;5000470;28;20240;-17
2022/04/27 03:38:03;;;;;;;4.45;2.90;;;;;;;;;;5001976;28;20309;-17
2022/04/27 03:40:31;;;;;;;3.05;2.22;;;;;;;;;;5000285;28;20338;-17
2022/04/27 03:42:58;;;;;;;3.08;2.53;;;;;;;;;;5001976;28;20240;-17
2022/04/27 03:45:25;;;;;;;3.60;2.63;;;;;;;;;;5003181;28;20231;-17
2022/04/27 03:47:53;;;;;;;2.78;2.38;;;;;;;;;;5001588;28;20231;-17
2022/04/27 03:50:20;;;;;;;2.75;2.42;;;;;;;;;;5000553;28;20243;-17
2022/04/27 03:52:49;;;;;;;3.95;2.40;;;;;;;;;;5002256;28;20697;-17
2022/04/27 03:55:16;;;;;;;3.67;2.67;;;;;;;;;;5003586;28;20243;-17
2022/04/27 03:57:43;;;;;;;3.28;2.53;;;;;;;;;;5004312;28;20231;-17
2022/04/27 04:00:11;;;;;;;4.53;2.85;;;;;;;;;;5002801;28;20230;-17
2022/04/27 04:02:39;;;;;;;2.75;2.50;;;;;;;;;;4999155;28;20235;-17
2022/04/27 04:05:07;;;;;;;3.28;2.90;;;;;;;;;;5004559;28;20272;-17
2022/04/27 04:07:34;;;;;;;4.10;2.65;;;;;;;;;;5005948;28;21141;-17
2022/04/27 04:10:03;;;;;;;4.45;2.50;;;;;;;;;;5003239;28;20231;-17
2022/04/27 04:12:31;;;;;;;4.90;2.85;;;;;;;;;;5006775;28;20227;-17
2022/04/27 04:14:58;;;;;;;2.55;2.35;;;;;;;;;;5004743;28;20291;-17
2022/04/27 04:17:25;;;;;;;3.88;2.90;;;;;;;;;;5008410;28;20698;-17
2022/04/27 04:19:53;;;;;;;3.78;2.60;;;;;;;;;;5004259;28;20305;-17
2022/04/27 04:22:20;;;;;;;4.13;2.47;;;;;;;;;;5005641;28;20243;-18
2022/04/27 04:30:15;;;;;;;3.28;2.75;;;;;;;;;;5007170;28;20352;-17
2022/04/27 04:32:43;;;;;;;3.28;2.50;;;;;;;;;;5009501;28;20232;-17
2022/04/27 04:35:10;;;;;;;3.42;2.70;;;;;;;;;;5006031;28;20240;-18
2022/04/27 04:37:37;;;;;;;2.53;2.30;;;;;;;;;;5002466;28;20220;-18
2022/04/27 04:40:05;;;;;;;2.65;2.28;;;;;;;;;;5004702;28;20232;-17
2022/04/27 04:42:35;;;;;;;3.90;2.53;;;;;;;;;;5002904;28;20239;-17
2022/04/27 04:45:02;;;;;;;3.22;2.50;;;;;;;;;;5004981;28;20235;-18
2022/04/27 04:47:30;;;;;;;2.67;2.47;;;;;;;;;;5004414;28;20246;-18
2022/04/27 04:49:57;;;;;;;2.92;2.45;;;;;;;;;;5003856;28;20949;-18
2022/04/27 04:52:24;;;;;;;3.03;2.70;;;;;;;;;;5005896;28;20222;-18
2022/04/27 04:54:52;;;;;;;2.90;2.60;;;;;;;;;;5003319;28;20323;-17
2022/04/27 04:57:19;;;;;;;4.63;2.47;;;;;;;;;;5004562;28;20255;-18
2022/04/27 04:59:48;;;;;;;4.07;2.30;;;;;;;;;;5002458;28;20224;-17
2022/04/27 05:02:15;;;;;;;2.63;2.33;;;;;;;;;;5008111;28;20243;-17
2022/04/27 05:04:42;;;;;;;4.30;3.08;;;;;;;;;;5002009;28;20240;-17
2022/04/27 05:07:10;;;;;;;4.60;2.60;;;;;;;;;;5005328;28;20243;-18
2022/04/27 05:09:37;;;;;;;3.05;2.40;;;;;;;;;;5005046;28;20238;-17
2022/04/27 05:12:05;;;;;;;3.42;2.95;;;;;;;;;;5005664;28;20227;-17
2022/04/27 05:14:33;;;;;;;3.65;2.40;;;;;;;;;;5005063;28;20322;-18
2022/04/27 05:17:02;;;;;;;2.97;2.42;;;;;;;;;;5003074;28;21241;-18
2022/04/27 05:19:29;;;;;;;3.28;2.65;;;;;;;;;;5004155;28;20236;-17
2022/04/27 05:21:57;;;;;;;3.00;2.42;;;;;;;;;;5002254;28;20278;-18
2022/04/27 05:24:24;;;;;;;3.28;2.70;;;;;;;;;;5003105;28;20236;-17
2022/04/27 05:26:51;;;;;;;2.40;2.20;;;;;;;;;;5004134;28;21149;-17
2022/04/27 05:32:06;;;;;;;2.83;2.60;;;;;;;;;;5003051;28;20219;-17
2022/04/27 05:34:33;;;;;;;2.88;2.20;;;;;;;;;;5004569;28;20239;-17
2022/04/27 05:37:01;;;;;;;2.78;2.47;;;;;;;;;;5002082;28;20239;-18
2022/04/27 05:39:29;;;;;;;3.38;2.40;;;;;;;;;;5003554;28;20231;-17
2022/04/27 05:41:56;;;;;;;6.05;2.45;;;;;;;;;;5002015;28;20249;-18
2022/04/27 05:44:24;;;;;;;2.95;2.22;;;;;;;;;;5002723;28;20718;-18
2022/04/27 05:46:51;;;;;;;2.58;2.22;;;;;;;;;;5007748;28;20232;-17
2022/04/27 05:49:20;;;;;;;4.78;2.60;;;;;;;;;;5002057;28;20236;-17
2022/04/27 05:51:47;;;;;;;2.50;2.08;;;;;;;;;;5003950;28;20215;-18
2022/04/27 05:54:15;;;;;;;2.40;1.98;;;;;;;;;;5001329;28;20242;-17
2022/04/27 05:56:42;;;;;;;2.20;2.00;;;;;;;;;;5008142;28;20991;-18
2022/04/27 05:59:09;;;;;;;2.42;1.98;;;;;;;;;;5001291;28;20221;-17
2022/04/27 06:01:37;;;;;;;2.60;1.95;;;;;;;;;;5005324;28;20235;-17
2022/04/27 06:04:04;;;;;;;3.40;2.50;;;;;;;;;;5001540;28;20602;-17
2022/04/27 06:06:33;;;;;;;2.83;2.25;;;;;;;;;;5002979;28;20933;-17
2022/04/27 06:09:00;;;;;;;3.17;2.00;;;;;;;;;;5004737;28;20253;-17
2022/04/27 06:11:28;;;;;;;2.25;1.85;;;;;;;;;;5000120;28;20671;-17
2022/04/27 06:13:55;;;;;;;3.47;2.33;;;;;;;;;;5002706;28;21123;-18
2022/04/27 06:16:24;;;;;;;3.15;2.20;;;;;;;;;;5003100;28;20238;-18
2022/04/27 06:18:51;;;;;;;2.10;1.80;;;;;;;;;;5003143;28;20223;-17
2022/04/27 06:21:19;;;;;;;2.58;1.90;;;;;;;;;;5001444;28;20243;-18
2022/04/27 06:23:47;;;;;;;3.80;1.80;;;;;;;;;;5002930;28;20998;-18
2022/04/27 06:26:15;;;;;;;2.28;2.00;;;;;;;;;;5000563;28;20703;-17
2022/04/27 06:28:42;;;;;;;2.35;1.98;;;;;;;;;;5003624;28;20728;-17
2022/04/27 06:31:09;;;;;;;3.00;2.20;;;;;;;;;;5001248;28;20286;-18
2022/04/27 06:33:37;;;;;;;2.10;1.90;;;;;;;;;;5004091;28;20227;-17
2022/04/27 06:36:04;;;;;;;2.17;1.70;;;;;;;;;;5000868;28;20228;-17
2022/04/27 06:38:32;;;;;;;2.65;2.10;;;;;;;;;;5000679;28;20250;-18
2022/04/27 06:41:15;;;;;;;3.17;1.85;;;;;;;;;;5005010;28;20338;-17
2022/04/27 06:43:43;;;;;;;2.40;1.90;;;;;;;;;;5000245;28;20743;-18
2022/04/27 06:46:10;;;;;;;2.53;1.63;;;;;;;;;;5003551;28;20245;-17
2022/04/27 06:48:38;;;;;;;2.00;1.80;;;;;;;;;;5000438;28;20224;-17
2022/04/27 06:51:05;;;;;;;2.72;2.00;;;;;;;;;;5003628;28;20231;-18
2022/04/27 06:53:32;;;;;;;2.88;2.00;;;;;;;;;;5004853;28;20232;-17
2022/04/27 06:56:03;;;;;;;2.85;2.10;;;;;;;;;;5006255;28;20239;-17
2022/04/27 06:58:32;;;;;;;2.15;1.75;;;;;;;;;;5003885;28;20242;-17
2022/04/27 07:00:59;;;;;;;2.78;2.20;;;;;;;;;;5003695;28;20231;-18
2022/04/27 07:03:28;;;;;;;4.25;1.80;;;;;;;;;;5003631;28;20239;-18
2022/04/27 07:05:55;;;;;;;3.13;2.40;;;;;;;;;;5001653;28;21008;-17
2022/04/27 07:08:22;;;;;;;2.88;2.05;;;;;;;;;;5001572;28;20235;-17
2022/04/27 07:10:50;;;;;;;3.75;2.17;;;;;;;;;;5002302;28;20814;-17
2022/04/27 07:13:17;;;;;;;2.40;1.90;;;;;;;;;;5001334;28;20232;-17
2022/04/27 07:15:51;;;;;;;2.63;2.25;;;;;;;;;;5004032;28;20278;-18
2022/04/27 07:18:19;;;;;;;2.15;1.90;;;;;;;;;;5000761;28;20235;-18
2022/04/27 07:20:46;;;;;;;2.00;1.75;;;;;;;;;;5002349;28;20227;-18
2022/04/27 07:23:14;;;;;;;4.07;2.38;;;;;;;;;;5000059;28;21047;-17
2022/04/27 07:25:41;;;;;;;3.47;2.40;;;;;;;;;;5003207;28;20216;-17
2022/04/27 07:28:08;;;;;;;2.65;2.03;;;;;;;;;;4999405;28;20346;-18
2022/04/27 07:30:36;;;;;;;3.15;1.80;;;;;;;;;;4997121;28;20228;-17
2022/04/27 07:33:04;;;;;;;2.10;1.90;;;;;;;;;;5003789;28;20213;-17
2022/04/27 07:35:32;;;;;;;2.78;1.80;;;;;;;;;;5004188;28;20246;-17
2022/04/27 07:37:59;;;;;;;2.40;1.98;;;;;;;;;;5002571;28;20246;-18
2022/04/27 07:40:26;;;;;;;2.72;1.95;;;;;;;;;;5004908;28;20546;-17
2022/04/27 07:42:55;;;;;;;2.00;1.80;;;;;;;;;;5004662;28;21050;-17
2022/04/27 07:45:22;;;;;;;2.38;1.70;;;;;;;;;;5005741;28;20238;-18
2022/04/27 07:47:49;;;;;;;2.00;1.80;;;;;;;;;;5006047;28;20228;-17
2022/04/27 07:50:19;;;;;;;2.22;1.85;;;;;;;;;;5005368;28;20223;-18
2022/04/27 07:52:47;;;;;;;2.20;1.90;;;;;;;;;;5003625;28;20314;-17
2022/04/27 07:55:14;;;;;;;1.70;1.52;;;;;;;;;;5006164;28;20234;-18
2022/04/27 07:57:42;;;;;;;2.35;1.77;;;;;;;;;;5006667;28;20688;-17
2022/04/27 08:00:11;;;;;;;2.05;1.63;;;;;;;;;;5003401;28;20231;-18
2022/04/27 08:02:39;;;;;;;2.58;1.88;;;;;;;;;;5006221;28;20230;-18
2022/04/27 08:05:07;;;;;;;2.45;1.60;;;;;;;;;;5002738;28;20239;-18
2022/04/27 08:07:36;;;;;;;1.95;1.48;;;;;;;;;;5001191;28;20238;-17
2022/04/27 08:10:10;;;;;;;1.80;1.65;;;;;;;;;;5002638;28;20220;-17
2022/04/27 08:12:39;;;;;;;3.90;2.17;;;;;;;;;;5002498;28;20958;-17
2022/04/27 08:15:06;;;;;;;4.35;1.95;;;;;;;;;;5005828;28;20222;-17
2022/04/27 08:17:34;;;;;;;2.40;1.70;;;;;;;;;;5009529;28;20240;-18
2022/04/27 08:22:47;;;;;;;2.60;1.67;;;;;;;;;;5002412;28;20240;-17
2022/04/27 08:25:15;;;;;;;2.50;1.50;;;;;;;;;;5005318;28;20227;-17
2022/04/27 08:27:42;;;;;;;2.38;1.80;;;;;;;;;;5002382;28;20730;-17
2022/04/27 08:30:10;;;;;;;2.15;1.80;;;;;;;;;;5006129;28;20236;-17
2022/04/27 08:32:37;;;;;;;2.30;1.60;;;;;;;;;;5001746;28;20512;-18
2022/04/27 08:35:05;;;;;;;2.03;1.83;;;;;;;;;;5006140;28;20360;-18
2022/04/27 08:37:32;;;;;;;2.53;1.73;;;;;;;;;;5002109;28;20688;-18
2022/04/27 08:40:08;;;;;;;2.33;1.60;;;;;;;;;;5002088;28;20228;-18
2022/04/27 08:42:35;;;;;;;1.92;1.70;;;;;;;;;;5005962;28;20220;-17
2022/04/27 08:45:03;;;;;;;2.72;1.70;;;;;;;;;;5002948;28;20818;-18
2022/04/27 08:47:30;;;;;;;2.38;1.50;;;;;;;;;;4998455;28;20224;-18
2022/04/27 08:49:57;;;;;;;2.15;1.48;;;;;;;;;;5003510;28;20725;-18
2022/04/27 08:52:25;;;;;;;1.88;1.42;;;;;;;;;;4999511;28;20228;-18
2022/04/27 08:54:52;;;;;;;1.67;1.52;;;;;;;;;;5007288;28;20694;-18
2022/04/27 08:57:21;;;;;;;3.03;1.58;;;;;;;;;;5004463;28;20223;-17
2022/04/27 08:59:49;;;;;;;2.22;1.60;;;;;;;;;;5002306;28;21184;-18
2022/04/27 09:02:26;;;;;;;1.55;1.42;;;;;;;;;;5004853;28;20236;-17
2022/04/27 09:05:06;;;;;;;3.53;1.45;;;;;;;;;;5002164;28;20309;-18
2022/04/27 09:07:38;;;;;;;2.92;1.60;;;;;;;;;;5000615;28;20687;-17
2022/04/27 09:10:06;;;;;;;2.00;1.45;;;;;;;;;;4998089;28;20238;-18
2022/04/27 09:12:35;;;;;;;1.50;1.40;;;;;;;;;;5002014;28;20977;-17
2022/04/27 09:15:06;;;;;;;1.67;1.48;;;;;;;;;;5001818;28;20236;-18
2022/04/27 09:23:03;;;;;;;2.60;1.52;;;;;;;;;;5000536;28;20829;-17
2022/04/27 09:25:32;;;;;;;4.72;1.40;;;;;;;;;;5003787;28;20287;-18
2022/04/27 09:28:24;;;;;;;3.28;1.20;;;;;;;;;;4997985;28;20236;-17
2022/04/27 09:30:51;;;;;;;2.05;1.48;;;;;;;;;;5005753;28;20226;-17
2022/04/27 09:33:29;;;;;;;2.55;1.50;;;;;;;;;;4998401;28;20532;-18
2022/04/27 09:35:57;;;;;;;1.95;1.30;;;;;;;;;;5000683;28;20243;-18
2022/04/27 09:38:24;;;;;;;2.13;1.60;;;;;;;;;;5004828;28;20232;-17
2022/04/27 09:40:52;;;;;;;1.95;1.30;;;;;;;;;;5003351;28;20247;-17
2022/04/27 09:43:40;;;;;;;1.95;1.67;;;;;;;;;;5002086;28;20287;-17
2022/04/27 09:46:15;;;;;;;1.95;1.25;;;;;;;;;;5005158;28;20298;-17
2022/04/27 09:48:46;;;;;;;2.47;1.05;;;;;;;;;;5001185;28;20212;-18
2022/04/27 09:51:13;;;;;;;1.58;1.35;;;;;;;;;;5004304;28;20306;-17
2022/04/27 09:53:41;;;;;;;3.00;1.40;;;;;;;;;;5004634;28;21029;-18
2022/04/27 09:56:10;;;;;;;2.47;1.50;;;;;;;;;;5004109;28;20326;-17
2022/04/27 09:58:43;;;;;;;1.70;1.52;;;;;;;;;;5001370;28;20220;-18
2022/04/27 10:01:10;;;;;;;1.80;1.50;;;;;;;;;;5000866;28;20231;-18
2022/04/27 10:03:43;;;;;;;1.58;1.35;;;;;;;;;;5000932;28;20410;-18
2022/04/27 10:06:10;;;;;;;1.88;1.42;;;;;;;;;;5004652;28;20232;-17
2022/04/27 10:08:39;;;;;;;2.33;1.27;;;;;;;;;;5004056;28;20228;-18
2022/04/27 10:11:06;;;;;;;1.80;1.50;;;;;;;;;;5004703;28;20732;-17
2022/04/27 10:13:34;;;;;;;2.03;1.40;;;;;;;;;;5001173;28;20235;-17
2022/04/27 10:16:03;;;;;;;2.08;1.50;;;;;;;;;;5004254;28;20230;-17
2022/04/27 10:18:30;;;;;;;2.28;1.50;;;;;;;;;;5006329;28;20379;-17
2022/04/27 10:20:57;;;;;;;4.18;1.58;;;;;;;;;;5004029;28;20794;-18
2022/04/27 10:23:27;;;;;;;1.75;1.30;;;;;;;;;;5003529;28;20252;-18
2022/04/27 10:26:08;;;;;;;1.80;1.10;;;;;;;;;;5002351;28;20231;-18
2022/04/27 10:28:36;;;;;;;1.65;1.25;;;;;;;;;;5003652;28;20219;-17
2022/04/27 10:31:07;;;;;;;2.55;1.55;;;;;;;;;;5005561;28;20933;-17
2022/04/27 10:33:49;;;;;;;2.03;1.20;;;;;;;;;;5004118;28;20294;-18
2022/04/27 10:36:22;;;;;;;1.15;1.05;;;;;;;;;;5004698;28;20235;-17
2022/04/27 10:39:09;;;;;;;1.40;1.30;;;;;;;;;;5001171;28;20216;-17
2022/04/27 10:41:36;;;;;;;3.05;1.67;;;;;;;;;;5002286;28;20231;-18
2022/04/27 10:44:03;;;;;;;1.88;1.25;;;;;;;;;;5000825;28;20360;-18
2022/04/27 10:46:39;;;;;;;3.33;1.52;;;;;;;;;;5005622;28;21113;-18
2022/04/27 10:49:22;;;;;;;2.72;1.50;;;;;;;;;;5003726;28;20211;-17
2022/04/27 10:51:59;;;;;;;3.00;1.48;;;;;;;;;;5004568;28;20267;-17
2022/04/27 10:54:26;;;;;;;2.50;1.30;;;;;;;;;;5003868;28;20220;-17
2022/04/27 10:56:54;;;;;;;2.35;1.45;;;;;;;;;;5004010;28;20228;-17
2022/04/27 10:59:40;;;;;;;1.00;0.90;;;;;;;;;;4999474;28;21010;-17
2022/04/27 11:02:20;;;;;;;2.55;1.10;;;;;;;;;;5000907;28;20220;-17
2022/04/27 11:04:48;;;;;;;1.60;1.20;;;;;;;;;;5000721;28;20719;-17
2022/04/27 11:07:21;;;;;;;1.35;1.20;;;;;;;;;;5002596;28;20232;-18
2022/04/27 11:10:14;;;;;;;2.95;1.40;;;;;;;;;;5002182;28;20317;-17
2022/04/27 11:12:42;;;;;;;3.53;1.42;;;;;;;;;;4999461;28;20228;-18
2022/04/27 11:15:11;;;;;;;1.90;1.30;;;;;;;;;;5008176;28;20235;-18
2022/04/27 11:17:40;;;;;;;1.40;1.17;;;;;;;;;;5000035;28;20232;-17
2022/04/27 11:20:21;;;;;;;1.70;1.20;;;;;;;;;;5000267;28;20619;-18
2022/04/27 11:22:49;;;;;;;2.30;1.33;;;;;;;;;;5000426;28;20777;-18
2022/04/27 11:25:22;;;;;;;2.35;1.45;;;;;;;;;;5007563;28;20723;-17
2022/04/27 11:27:50;;;;;;;1.73;1.40;;;;;;;;;;4999246;28;20610;-18
2022/04/27 11:30:17;;;;;;;1.98;1.23;;;;;;;;;;5002863;28;20232;-17
2022/04/27 11:32:47;;;;;;;1.67;1.30;;;;;;;;;;5006835;28;20714;-18
2022/04/27 11:35:14;;;;;;;1.85;1.13;;;;;;;;;;5002155;28;20224;-17
2022/04/27 11:37:42;;;;;;;2.72;1.38;;;;;;;;;;5003020;28;20227;-18
2022/04/27 11:40:13;;;;;;;2.50;1.30;;;;;;;;;;5003413;28;20235;-18
2022/04/27 11:42:43;;;;;;;1.27;1.17;;;;;;;;;;5003495;28;20223;-18
2022/04/27 11:45:11;;;;;;;1.30;1.20;;;;;;;;;;5000482;28;20248;-17
2022/04/27 11:47:39;;;;;;;1.55;1.20;;;;;;;;;;5007563;28;20241;-17
2022/04/27 11:50:08;;;;;;;1.92;1.33;;;;;;;;;;4999587;28;20980;-18
2022/04/27 11:52:37;;;;;;;2.05;1.30;;;;;;;;;;4999620;28;20240;-17
2022/04/27 11:55:08;;;;;;;2.08;1.15;;;;;;;;;;5002597;28;21097;-18
2022/04/27 11:57:36;;;;;;;1.73;1.30;;;;;;;;;;5001924;28;20228;-18
2022/04/27 12:00:03;;;;;;;1.67;1.35;;;;;;;;;;4999840;28;20232;-18
2022/04/27 12:02:33;;;;;;;2.13;1.30;;;;;;;;;;4999397;28;20232;-18
2022/04/27 12:05:01;;;;;;;2.17;1.10;;;;;;;;;;4999635;28;20268;-18
2022/04/27 12:07:35;;;;;;;3.17;1.40;;;;;;;;;;4999783;28;20767;-18
2022/04/27 12:10:03;;;;;;;1.88;1.40;;;;;;;;;;5001181;28;20227;-18
2022/04/27 12:12:31;;;;;;;1.75;1.40;;;;;;;;;;4999858;28;20223;-17
2022/04/27 12:15:03;;;;;;;1.27;1.10;;;;;;;;;;5001302;28;20747;-17
2022/04/27 12:17:40;;;;;;;2.85;1.27;;;;;;;;;;5000597;28;20217;-18
2022/04/27 12:20:08;;;;;;;2.80;1.33;;;;;;;;;;4995425;28;20236;-17
2022/04/27 12:22:37;;;;;;;2.15;1.20;;;;;;;;;;5001282;28;20250;-18
2022/04/27 12:25:06;;;;;;;1.77;1.20;;;;;;;;;;4999932;28;20888;-18
2022/04/27 12:27:33;;;;;;;5.00;1.48;;;;;;;;;;5001279;28;20227;-18
2022/04/27 12:30:04;;;;;;;1.70;1.38;;;;;;;;;;5003036;28;20255;-18
2022/04/27 12:32:32;;;;;;;2.92;1.30;;;;;;;;;;5006304;28;20237;-18
2022/04/27 12:37:50;;;;;;;1.40;1.20;;;;;;;;;;5003322;28;20606;-17
2022/04/27 12:40:18;;;;;;;2.08;1.42;;;;;;;;;;5005062;28;20319;-18
2022/04/27 12:43:01;;;;;;;3.45;1.20;;;;;;;;;;5005214;28;20255;-17
2022/04/27 12:45:29;;;;;;;1.65;1.20;;;;;;;;;;5003421;28;20232;-17
2022/04/27 12:47:56;;;;;;;2.00;1.30;;;;;;;;;;5006006;28;21102;-17
2022/04/27 12:50:24;;;;;;;2.00;1.20;;;;;;;;;;5003536;28;20687;-18
2022/04/27 12:52:52;;;;;;;1.67;1.20;;;;;;;;;;5005748;28;20261;-18
2022/04/27 12:55:21;;;;;;;1.73;1.30;;;;;;;;;;5004536;28;20231;-18
2022/04/27 12:57:49;;;;;;;1.58;1.27;;;;;;;;;;5002614;28;20322;-17
2022/04/27 13:00:16;;;;;;;2.63;1.20;;;;;;;;;;5005786;28;20248;-18
2022/04/27 13:02:44;;;;;;;2.00;1.00;;;;;;;;;;5006341;28;20222;-18
2022/04/27 13:05:12;;;;;;;1.55;1.33;;;;;;;;;;5004564;28;20236;-18
2022/04/27 13:07:40;;;;;;;3.75;1.20;;;;;;;;;;5005365;28;20352;-18
2022/04/27 13:12:54;;;;;;;2.47;1.40;;;;;;;;;;5002713;28;20236;-18
2022/04/27 13:15:23;;;;;;;2.25;1.10;;;;;;;;;;5006977;28;20785;-17
2022/04/27 13:17:50;;;;;;;2.38;1.42;;;;;;;;;;5002790;28;20231;-17
2022/04/27 13:20:18;;;;;;;4.03;1.27;;;;;;;;;;5001048;28;20243;-17
2022/04/27 13:22:45;;;;;;;2.08;1.25;;;;;;;;;;5004249;28;20243;-17
2022/04/27 13:25:14;;;;;;;2.35;1.40;;;;;;;;;;5002259;28;20232;-17
2022/04/27 13:27:41;;;;;;;2.45;1.30;;;;;;;;;;5005083;28;20232;-18
2022/04/27 13:30:09;;;;;;;4.13;1.55;;;;;;;;;;5002096;28;20236;-17
2022/04/27 13:32:37;;;;;;;1.83;1.33;;;;;;;;;;5006001;28;20217;-17
2022/04/27 13:35:04;;;;;;;2.28;1.40;;;;;;;;;;5005829;28;20228;-18
2022/04/27 13:37:32;;;;;;;2.65;1.40;;;;;;;;;;5000652;28;20232;-18
2022/04/27 13:39:59;;;;;;;2.05;1.35;;;;;;;;;;5003365;28;20243;-18
2022/04/27 13:42:28;;;;;;;1.80;1.27;;;;;;;;;;5004700;28;20714;-18
2022/04/27 13:44:55;;;;;;;1.42;1.30;;;;;;;;;;5002767;28;20231;-18
2022/04/27 13:47:23;;;;;;;2.00;1.40;;;;;;;;;;5006316;28;20248;-18
2022/04/27 13:49:51;;;;;;;2.13;1.25;;;;;;;;;;5002322;28;21044;-18
2022/04/27 13:52:38;;;;;;;2.13;1.40;;;;;;;;;;5001065;28;20228;-18
2022/04/27 13:55:06;;;;;;;2.40;1.42;;;;;;;;;;5001626;28;20260;-18
2022/04/27 13:57:35;;;;;;;2.60;1.25;;;;;;;;;;5005091;28;20288;-18
2022/04/27 14:00:04;;;;;;;2.90;1.65;;;;;;;;;;5001296;28;20243;-19
2022/04/27 14:02:31;;;;;;;1.27;1.17;;;;;;;;;;5000319;28;21511;-19
2022/04/27 14:05:00;;;;;;;2.75;1.30;;;;;;;;;;5003228;28;20225;-18
2022/04/27 14:07:28;;;;;;;2.13;1.42;;;;;;;;;;5001980;28;21040;-18
2022/04/27 14:09:55;;;;;;;2.47;1.40;;;;;;;;;;5001915;28;20232;-18
2022/04/27 14:15:09;;;;;;;2.22;1.42;;;;;;;;;;5000779;28;20295;-16
2022/04/27 14:20:28;;;;;;;1.85;1.30;;;;;;;;;;5003016;28;20286;-16
2022/04/27 14:22:55;;;;;;;2.72;1.60;;;;;;;;;;5003649;28;20250;-19
2022/04/27 14:25:23;;;;;;;1.98;1.42;;;;;;;;;;5002684;28;20255;-19
2022/04/27 14:27:52;;;;;;;3.25;1.50;;;;;;;;;;5004215;28;20247;-19
2022/04/27 14:30:20;;;;;;;1.75;1.30;;;;;;;;;;5001775;28;20740;-19
2022/04/27 14:32:49;;;;;;;1.67;1.40;;;;;;;;;;5003877;28;20219;-17
2022/04/27 14:35:17;;;;;;;4.28;1.70;;;;;;;;;;5001248;28;21144;-17
2022/04/27 14:37:44;;;;;;;1.85;1.30;;;;;;;;;;5004060;28;20234;-17
2022/04/27 14:40:12;;;;;;;1.40;1.13;;;;;;;;;;5000817;28;20252;-17
2022/04/27 14:42:39;;;;;;;3.08;1.40;;;;;;;;;;5000773;28;20223;-19
2022/04/27 14:45:08;;;;;;;2.13;1.40;;;;;;;;;;5000875;28;20236;-17
2022/04/27 14:47:37;;;;;;;2.58;1.33;;;;;;;;;;4999990;28;20233;-16
2022/04/27 14:50:04;;;;;;;2.95;1.20;;;;;;;;;;5007347;28;20220;-17
2022/04/27 14:52:32;;;;;;;1.77;1.27;;;;;;;;;;5000279;28;20216;-16
2022/04/27 14:55:00;;;;;;;1.65;1.10;;;;;;;;;;5003663;28;20231;-17
2022/04/27 14:57:27;;;;;;;2.08;1.60;;;;;;;;;;5002212;28;20232;-17
2022/04/27 14:59:54;;;;;;;1.58;1.35;;;;;;;;;;5002317;28;20212;-16
2022/04/27 15:02:22;;;;;;;1.88;1.25;;;;;;;;;;5002459;28;20322;-16
2022/04/27 15:04:51;;;;;;;3.42;1.50;;;;;;;;;;5003618;28;20231;-17
2022/04/27 15:07:18;;;;;;;2.17;1.35;;;;;;;;;;5002412;28;20715;-17
2022/04/27 15:09:46;;;;;;;2.10;1.40;;;;;;;;;;5000203;28;20252;-16
2022/04/27 15:12:13;;;;;;;1.80;1.35;;;;;;;;;;4999299;28;20228;-17
2022/04/27 15:14:40;;;;;;;1.67;1.23;;;;;;;;;;5003329;28;20223;-17
2022/04/27 15:17:08;;;;;;;2.05;1.40;;;;;;;;;;4998970;28;20235;-17
2022/04/27 15:19:36;;;;;;;2.70;1.48;;;;;;;;;;5000024;28;20228;-16
2022/04/27 15:24:51;;;;;;;2.05;1.42;;;;;;;;;;5002214;28;20227;-16
2022/04/27 15:27:18;;;;;;;3.40;1.60;;;;;;;;;;5000635;28;20248;-17